Terminal Aerodrome Forecast
Issued by NWS

Home | Current Version | Previous Version | Text Only | Print | Product List | Glossary On
Versions: 1 2 3 4 5 6 7 8 9 10 11 12 13
000
FTUS45 KABQ 221129
TAFTCC
TAF
KTCC 221129Z 2212/2312 29010KT P6SM SKC
     FM222100 28010KT P6SM FEW200
     FM230100 25013KT P6SM SCT150=

USA.gov is the U.S. government's official web portal to all federal, state and local government web resources and services.